Time;durP1;ratioP1;P1;durP2;ratioP2;P2;SDS_P1;SDS_P2;PMS_P1;PMS_P2;Temp;Humidity;BMP_temperature;BMP_pressure;BME280_temperature;BME280_humidity;BME280_pressure;Samples;Min_cycle;Max_cycle;Signal;HPM_P1;HPM_P2
2023/01/25 05:17:16;;;;;;;18.07;11.87;;;0.40;95.30;;;;;;4757925;29;20483;-82
2023/01/25 05:43:00;;;;;;;20.17;10.20;;;0.30;96.30;;;;;;4756030;29;20375;-84
2023/01/25 06:08:10;;;;;;;25.67;16.70;;;0.20;97.00;;;;;;4651575;30;20482;-84
2023/01/25 06:28:44;;;;;;;28.17;16.93;;;0.20;97.10;;;;;;4600919;30;20249;-85
2023/01/25 06:49:07;;;;;;;28.47;18.07;;;0.20;97.00;;;;;;4669541;30;20300;-83
2023/01/25 07:09:15;;;;;;;32.27;19.10;;;0.00;97.80;;;;;;4629011;30;20683;-84
2023/01/25 07:34:03;;;;;;;37.60;19.80;;;0.00;97.40;;;;;;4538843;30;20233;-84
2023/01/25 07:59:48;;;;;;;35.53;20.60;;;0.00;96.60;;;;;;4775729;29;20271;-84
2023/01/25 08:25:27;;;;;;;36.00;21.87;;;-0.10;96.90;;;;;;4824543;29;20197;-82
2023/01/25 08:29:52;;;;;;;42.13;21.70;;;0.00;97.60;;;;;;4764032;29;20319;-82
2023/01/25 08:55:10;;;;;;;39.37;23.40;;;0.00;95.60;;;;;;4803347;29;20376;-81
2023/01/25 09:15:27;;;;;;;47.00;26.73;;;0.20;95.90;;;;;;4648427;30;20224;-81
2023/01/25 09:41:13;;;;;;;43.10;24.80;;;0.20;96.20;;;;;;4740831;29;20345;-80
2023/01/25 10:06:44;;;;;;;45.90;24.70;;;0.40;94.60;;;;;;5374765;23;20214;31
2023/01/25 10:27:07;;;;;;;45.33;24.87;;;0.50;93.80;;;;;;4769737;30;20231;-84
2023/01/25 10:52:19;;;;;;;50.20;27.97;;;0.60;94.00;;;;;;4707218;30;20243;-84
2023/01/25 11:47:51;;;;;;;54.20;28.90;;;0.70;95.40;;;;;;4646156;30;20335;-81
2023/01/25 12:33:34;;;;;;;51.03;27.90;;;0.70;94.70;;;;;;4662653;30;20561;-85
2023/01/25 12:48:07;;;;;;;54.33;28.60;;;0.70;94.20;;;;;;4838601;29;20292;-84
2023/01/25 13:08:55;;;;;;;54.03;28.53;;;0.60;94.90;;;;;;4804955;29;20850;-85
2023/01/25 13:18:46;;;;;;;58.23;28.27;;;0.70;94.40;;;;;;5846434;23;20325;-83
2023/01/25 13:53:56;;;;;;;51.67;25.43;;;0.90;93.70;;;;;;4697960;30;20385;-82
2023/01/25 14:14:35;;;;;;;52.57;27.93;;;0.80;94.30;;;;;;5872844;23;21642;-86
2023/01/25 14:45:00;;;;;;;61.77;29.83;;;0.70;96.10;;;;;;4673492;30;21643;-85
2023/01/25 15:15:38;;;;;;;53.53;28.17;;;0.60;98.20;;;;;;4876726;29;20277;-85
2023/01/25 15:41:04;;;;;;;52.43;24.90;;;0.60;98.50;;;;;;4655213;30;20224;-83
2023/01/25 15:45:24;;;;;;;50.03;25.27;;;0.60;99.00;;;;;;4626476;30;20240;-81
2023/01/25 16:36:51;;;;;;;55.00;27.90;;;0.60;99.30;;;;;;4659402;30;20219;-82
2023/01/25 17:12:12;;;;;;;49.80;25.37;;;0.50;99.30;;;;;;4838475;29;20235;-84
2023/01/25 17:42:46;;;;;;;53.73;26.47;;;0.50;99.00;;;;;;4810223;29;20242;-84
2023/01/25 18:12:40;;;;;;;48.60;25.97;;;0.60;98.30;;;;;;4691160;30;20604;-83
2023/01/25 18:23:03;;;;;;;44.20;24.73;;;0.60;98.70;;;;;;4930692;29;20271;-82
2023/01/25 18:27:23;;;;;;;47.73;24.73;;;0.70;99.00;;;;;;4940550;29;20226;-84
2023/01/25 18:48:00;;;;;;;46.67;24.83;;;0.50;98.20;;;;;;4753969;30;20209;-83
2023/01/25 19:03:19;;;;;;;44.40;24.23;;;0.60;98.80;;;;;;4912219;29;20302;-85
2023/01/25 19:28:48;;;;;;;46.03;24.80;;;0.50;98.40;;;;;;4920732;29;20198;-84
2023/01/25 19:53:57;;;;;;;41.13;22.90;;;0.60;99.30;;;;;;4741541;30;20350;-84
2023/01/25 20:19:26;;;;;;;46.63;23.80;;;0.60;99.70;;;;;;4725996;30;20212;-83
2023/01/25 20:49:46;;;;;;;46.20;23.90;;;0.50;99.50;;;;;;4686115;30;20337;-83
2023/01/25 21:15:04;;;;;;;47.60;23.90;;;0.70;99.20;;;;;;4781486;29;20218;-82
2023/01/25 22:20:36;;;;;;;49.63;26.00;;;0.90;99.90;;;;;;4853142;29;20231;-84
2023/01/25 22:46:33;;;;;;;56.43;27.40;;;0.80;99.90;;;;;;4746909;30;20218;-83
2023/01/25 23:11:53;;;;;;;52.77;28.90;;;0.80;99.90;;;;;;4717966;30;20242;-82
2023/01/25 23:37:12;;;;;;;55.13;29.93;;;0.90;99.90;;;;;;4621946;31;20273;-84
